sensor_id;sensor_type;location;lat;lon;timestamp;temperature;humidity
14182;DHT22;7171;50.936;6.764;2024-01-10T00:00:56;-2.10;99.90
14182;DHT22;7171;50.936;6.764;2024-01-10T00:03:23;-2.10;99.90
14182;DHT22;7171;50.936;6.764;2024-01-10T00:05:49;-2.10;99.90
14182;DHT22;7171;50.936;6.764;2024-01-10T00:08:16;-2.10;99.90
14182;DHT22;7171;50.936;6.764;2024-01-10T00:10:43;-2.10;99.90
14182;DHT22;7171;50.936;6.764;2024-01-10T00:13:11;-2.10;99.90
14182;DHT22;7171;50.936;6.764;2024-01-10T00:15:37;-2.20;99.90
14182;DHT22;7171;50.936;6.764;2024-01-10T00:18:04;-2.20;99.90
14182;DHT22;7171;50.936;6.764;2024-01-10T00:20:31;-2.20;99.90
14182;DHT22;7171;50.936;6.764;2024-01-10T00:22:58;-2.30;99.90
14182;DHT22;7171;50.936;6.764;2024-01-10T00:25:24;-2.30;99.90
14182;DHT22;7171;50.936;6.764;2024-01-10T00:27:51;-2.30;99.90
14182;DHT22;7171;50.936;6.764;2024-01-10T00:30:19;-2.30;99.90
14182;DHT22;7171;50.936;6.764;2024-01-10T00:32:46;-2.30;99.90
14182;DHT22;7171;50.936;6.764;2024-01-10T00:35:12;-2.30;99.90
14182;DHT22;7171;50.936;6.764;2024-01-10T00:37:39;-2.30;99.90
14182;DHT22;7171;50.936;6.764;2024-01-10T00:40:06;-2.30;99.90
14182;DHT22;7171;50.936;6.764;2024-01-10T00:42:33;-2.30;99.90
14182;DHT22;7171;50.936;6.764;2024-01-10T00:45:00;-2.30;99.90
14182;DHT22;7171;50.936;6.764;2024-01-10T00:47:28;-2.30;99.90
14182;DHT22;7171;50.936;6.764;2024-01-10T00:49:55;-2.30;99.90
14182;DHT22;7171;50.936;6.764;2024-01-10T00:52:22;-2.30;99.90
14182;DHT22;7171;50.936;6.764;2024-01-10T00:54:48;-2.30;99.90
14182;DHT22;7171;50.936;6.764;2024-01-10T00:57:15;-2.30;99.90
14182;DHT22;7171;50.936;6.764;2024-01-10T00:59:42;-2.30;99.90
14182;DHT22;7171;50.936;6.764;2024-01-10T01:02:08;-2.40;99.90
14182;DHT22;7171;50.936;6.764;2024-01-10T01:04:36;-2.40;99.90
14182;DHT22;7171;50.936;6.764;2024-01-10T01:07:03;-2.40;99.90
14182;DHT22;7171;50.936;6.764;2024-01-10T01:09:30;-2.40;99.90
14182;DHT22;7171;50.936;6.764;2024-01-10T01:11:57;-2.40;99.90
14182;DHT22;7171;50.936;6.764;2024-01-10T01:14:23;-2.40;99.90
14182;DHT22;7171;50.936;6.764;2024-01-10T01:16:50;-2.30;99.90
14182;DHT22;7171;50.936;6.764;2024-01-10T01:19:17;-2.30;99.90
14182;DHT22;7171;50.936;6.764;2024-01-10T01:21:45;-2.30;99.90
14182;DHT22;7171;50.936;6.764;2024-01-10T01:24:11;-2.20;99.90
14182;DHT22;7171;50.936;6.764;2024-01-10T01:26:38;-2.20;99.90
14182;DHT22;7171;50.936;6.764;2024-01-10T01:29:05;-2.20;99.90
14182;DHT22;7171;50.936;6.764;2024-01-10T01:31:31;-2.20;99.90
14182;DHT22;7171;50.936;6.764;2024-01-10T01:33:58;-2.20;99.90
14182;DHT22;7171;50.936;6.764;2024-01-10T01:36:25;-2.20;99.90
14182;DHT22;7171;50.936;6.764;2024-01-10T01:38:53;-2.20;99.90
14182;DHT22;7171;50.936;6.764;2024-01-10T01:41:20;-2.20;99.90
14182;DHT22;7171;50.936;6.764;2024-01-10T01:43:46;-2.20;99.90
14182;DHT22;7171;50.936;6.764;2024-01-10T01:46:13;-2.20;99.90
14182;DHT22;7171;50.936;6.764;2024-01-10T01:48:40;-2.20;99.90
14182;DHT22;7171;50.936;6.764;2024-01-10T01:51:09;-2.20;99.90
14182;DHT22;7171;50.936;6.764;2024-01-10T01:53:37;-2.20;99.90
14182;DHT22;7171;50.936;6.764;2024-01-10T01:56:07;-2.20;99.90
14182;DHT22;7171;50.936;6.764;2024-01-10T01:58:35;-2.20;99.90
14182;DHT22;7171;50.936;6.764;2024-01-10T02:01:02;-2.20;99.90
14182;DHT22;7171;50.936;6.764;2024-01-10T02:03:30;-2.20;99.90
14182;DHT22;7171;50.936;6.764;2024-01-10T02:05:57;-2.20;99.90
14182;DHT22;7171;50.936;6.764;2024-01-10T02:08:24;-2.20;99.90
14182;DHT22;7171;50.936;6.764;2024-01-10T02:10:51;-2.20;99.90
14182;DHT22;7171;50.936;6.764;2024-01-10T02:13:20;-2.20;99.90
14182;DHT22;7171;50.936;6.764;2024-01-10T02:15:47;-2.20;99.90
14182;DHT22;7171;50.936;6.764;2024-01-10T02:18:13;-2.20;99.90
14182;DHT22;7171;50.936;6.764;2024-01-10T02:20:43;-2.20;99.90
14182;DHT22;7171;50.936;6.764;2024-01-10T02:23:09;-2.20;99.90
14182;DHT22;7171;50.936;6.764;2024-01-10T02:25:37;-2.10;99.90
14182;DHT22;7171;50.936;6.764;2024-01-10T02:28:05;-2.10;99.90
14182;DHT22;7171;50.936;6.764;2024-01-10T02:30:32;-2.10;99.90
14182;DHT22;7171;50.936;6.764;2024-01-10T02:32:59;-2.10;99.90
14182;DHT22;7171;50.936;6.764;2024-01-10T02:35:25;-2.00;99.90
14182;DHT22;7171;50.936;6.764;2024-01-10T02:37:53;-2.00;99.90
14182;DHT22;7171;50.936;6.764;2024-01-10T02:40:19;-2.00;99.90
14182;DHT22;7171;50.936;6.764;2024-01-10T02:42:48;-2.00;99.90
14182;DHT22;7171;50.936;6.764;2024-01-10T02:45:16;-2.10;99.90
14182;DHT22;7171;50.936;6.764;2024-01-10T02:47:43;-2.10;99.90
14182;DHT22;7171;50.936;6.764;2024-01-10T02:50:10;-2.10;99.90
14182;DHT22;7171;50.936;6.764;2024-01-10T02:52:36;-2.00;99.90
14182;DHT22;7171;50.936;6.764;2024-01-10T02:55:04;-2.00;99.90
14182;DHT22;7171;50.936;6.764;2024-01-10T02:57:30;-2.00;99.90
14182;DHT22;7171;50.936;6.764;2024-01-10T02:59:58;-2.00;99.90
14182;DHT22;7171;50.936;6.764;2024-01-10T03:02:25;-2.00;99.90
14182;DHT22;7171;50.936;6.764;2024-01-10T03:04:52;-2.00;99.90
14182;DHT22;7171;50.936;6.764;2024-01-10T03:07:18;-2.00;99.90
14182;DHT22;7171;50.936;6.764;2024-01-10T03:09:45;-2.10;99.90
14182;DHT22;7171;50.936;6.764;2024-01-10T03:12:12;-2.10;99.90
14182;DHT22;7171;50.936;6.764;2024-01-10T03:14:39;-2.10;99.90
14182;DHT22;7171;50.936;6.764;2024-01-10T03:17:07;-2.10;99.90
14182;DHT22;7171;50.936;6.764;2024-01-10T03:19:34;-0.10;99.90
14182;DHT22;7171;50.936;6.764;2024-01-10T03:22:03;-2.10;99.90
14182;DHT22;7171;50.936;6.764;2024-01-10T03:24:29;-2.10;99.90
14182;DHT22;7171;50.936;6.764;2024-01-10T03:26:56;-2.10;99.90
14182;DHT22;7171;50.936;6.764;2024-01-10T03:29:23;-2.10;99.90
14182;DHT22;7171;50.936;6.764;2024-01-10T03:31:49;-2.10;99.90
14182;DHT22;7171;50.936;6.764;2024-01-10T03:34:17;-2.10;99.90
14182;DHT22;7171;50.936;6.764;2024-01-10T03:36:44;-2.10;99.90
14182;DHT22;7171;50.936;6.764;2024-01-10T03:39:11;-2.10;99.90
14182;DHT22;7171;50.936;6.764;2024-01-10T03:41:38;-2.10;99.90
14182;DHT22;7171;50.936;6.764;2024-01-10T03:44:04;-2.00;99.90
14182;DHT22;7171;50.936;6.764;2024-01-10T03:46:31;-2.00;99.90
14182;DHT22;7171;50.936;6.764;2024-01-10T03:48:58;-2.00;99.90
14182;DHT22;7171;50.936;6.764;2024-01-10T03:51:26;-2.00;99.90
14182;DHT22;7171;50.936;6.764;2024-01-10T03:53:54;-2.00;99.90
14182;DHT22;7171;50.936;6.764;2024-01-10T03:56:21;-2.00;99.90
14182;DHT22;7171;50.936;6.764;2024-01-10T03:58:48;-2.00;99.90
14182;DHT22;7171;50.936;6.764;2024-01-10T04:01:15;-2.00;99.90
14182;DHT22;7171;50.936;6.764;2024-01-10T04:03:41;-2.10;99.90
14182;DHT22;7171;50.936;6.764;2024-01-10T04:06:09;-2.10;99.90
14182;DHT22;7171;50.936;6.764;2024-01-10T04:08:37;-2.10;99.90
14182;DHT22;7171;50.936;6.764;2024-01-10T04:11:04;-2.10;99.90
14182;DHT22;7171;50.936;6.764;2024-01-10T04:13:31;-2.10;99.90
14182;DHT22;7171;50.936;6.764;2024-01-10T04:15:57;-2.10;99.90
14182;DHT22;7171;50.936;6.764;2024-01-10T04:18:24;-2.20;99.90
14182;DHT22;7171;50.936;6.764;2024-01-10T04:20:51;-2.20;99.90
14182;DHT22;7171;50.936;6.764;2024-01-10T04:23:18;-2.20;99.90
14182;DHT22;7171;50.936;6.764;2024-01-10T04:25:46;-2.30;99.90
14182;DHT22;7171;50.936;6.764;2024-01-10T04:28:13;-2.40;99.90
14182;DHT22;7171;50.936;6.764;2024-01-10T04:30:39;-2.40;99.90
14182;DHT22;7171;50.936;6.764;2024-01-10T04:33:05;-2.40;99.90
14182;DHT22;7171;50.936;6.764;2024-01-10T04:35:32;-2.40;99.90
14182;DHT22;7171;50.936;6.764;2024-01-10T04:37:58;-2.40;99.90
14182;DHT22;7171;50.936;6.764;2024-01-10T04:40:25;-2.50;99.90
14182;DHT22;7171;50.936;6.764;2024-01-10T04:42:53;-2.50;99.90
14182;DHT22;7171;50.936;6.764;2024-01-10T04:45:20;-2.50;99.90
14182;DHT22;7171;50.936;6.764;2024-01-10T04:47:46;-2.60;99.90
14182;DHT22;7171;50.936;6.764;2024-01-10T04:50:13;-2.60;99.90
14182;DHT22;7171;50.936;6.764;2024-01-10T04:52:40;-2.50;99.90
14182;DHT22;7171;50.936;6.764;2024-01-10T04:55:07;-2.50;99.90
14182;DHT22;7171;50.936;6.764;2024-01-10T04:57:34;-2.50;99.90
14182;DHT22;7171;50.936;6.764;2024-01-10T05:00:03;-2.50;99.90
14182;DHT22;7171;50.936;6.764;2024-01-10T05:02:30;-2.50;99.90
14182;DHT22;7171;50.936;6.764;2024-01-10T05:04:56;-2.50;99.90
14182;DHT22;7171;50.936;6.764;2024-01-10T05:07:23;-2.50;99.90
14182;DHT22;7171;50.936;6.764;2024-01-10T05:09:50;-2.40;99.90
14182;DHT22;7171;50.936;6.764;2024-01-10T05:12:16;-2.40;99.90
14182;DHT22;7171;50.936;6.764;2024-01-10T05:14:43;-2.40;99.90
14182;DHT22;7171;50.936;6.764;2024-01-10T05:17:11;-2.40;99.90
14182;DHT22;7171;50.936;6.764;2024-01-10T05:19:38;-2.40;99.90
14182;DHT22;7171;50.936;6.764;2024-01-10T05:22:05;-2.40;99.90
14182;DHT22;7171;50.936;6.764;2024-01-10T05:24:32;-2.40;99.90
14182;DHT22;7171;50.936;6.764;2024-01-10T05:26:58;-2.40;99.90
14182;DHT22;7171;50.936;6.764;2024-01-10T05:29:25;-2.40;99.90
14182;DHT22;7171;50.936;6.764;2024-01-10T05:31:53;-2.40;99.90
14182;DHT22;7171;50.936;6.764;2024-01-10T05:34:21;-2.40;99.90
14182;DHT22;7171;50.936;6.764;2024-01-10T05:36:47;-2.40;99.90
14182;DHT22;7171;50.936;6.764;2024-01-10T05:39:15;-2.40;99.90
14182;DHT22;7171;50.936;6.764;2024-01-10T05:41:42;-2.40;99.90
14182;DHT22;7171;50.936;6.764;2024-01-10T05:44:09;-2.40;99.90
14182;DHT22;7171;50.936;6.764;2024-01-10T05:46:36;-2.40;99.90
14182;DHT22;7171;50.936;6.764;2024-01-10T05:49:03;-2.30;99.90
14182;DHT22;7171;50.936;6.764;2024-01-10T05:51:32;-2.30;99.90
14182;DHT22;7171;50.936;6.764;2024-01-10T05:53:58;-2.40;99.90
14182;DHT22;7171;50.936;6.764;2024-01-10T05:56:25;-2.40;99.90
14182;DHT22;7171;50.936;6.764;2024-01-10T05:58:52;-2.40;99.90
14182;DHT22;7171;50.936;6.764;2024-01-10T06:01:19;-2.40;99.90
14182;DHT22;7171;50.936;6.764;2024-01-10T06:03:46;-2.40;99.90
14182;DHT22;7171;50.936;6.764;2024-01-10T06:06:12;-2.40;99.90
14182;DHT22;7171;50.936;6.764;2024-01-10T06:08:40;-2.40;99.90
14182;DHT22;7171;50.936;6.764;2024-01-10T06:11:07;-2.40;99.90
14182;DHT22;7171;50.936;6.764;2024-01-10T06:13:34;-2.50;99.90
14182;DHT22;7171;50.936;6.764;2024-01-10T06:16:02;-2.50;99.90
14182;DHT22;7171;50.936;6.764;2024-01-10T06:18:29;-2.50;99.90
14182;DHT22;7171;50.936;6.764;2024-01-10T06:20:55;-2.50;99.90
14182;DHT22;7171;50.936;6.764;2024-01-10T06:23:22;-2.50;99.90
14182;DHT22;7171;50.936;6.764;2024-01-10T06:25:50;-2.50;99.90
14182;DHT22;7171;50.936;6.764;2024-01-10T06:28:18;-2.60;99.90
14182;DHT22;7171;50.936;6.764;2024-01-10T06:30:45;-2.60;99.90
14182;DHT22;7171;50.936;6.764;2024-01-10T06:33:12;-2.60;99.90
14182;DHT22;7171;50.936;6.764;2024-01-10T06:35:39;-2.60;99.90
14182;DHT22;7171;50.936;6.764;2024-01-10T06:38:06;-2.60;99.90
14182;DHT22;7171;50.936;6.764;2024-01-10T06:40:33;-2.60;99.90
14182;DHT22;7171;50.936;6.764;2024-01-10T06:43:01;-2.60;99.90
14182;DHT22;7171;50.936;6.764;2024-01-10T06:45:28;-2.60;99.90
14182;DHT22;7171;50.936;6.764;2024-01-10T06:47:54;-2.60;99.90
14182;DHT22;7171;50.936;6.764;2024-01-10T06:50:21;-2.60;99.90
14182;DHT22;7171;50.936;6.764;2024-01-10T06:52:49;-2.60;99.90
14182;DHT22;7171;50.936;6.764;2024-01-10T06:55:16;-2.60;99.90
14182;DHT22;7171;50.936;6.764;2024-01-10T06:57:43;-2.60;99.90
14182;DHT22;7171;50.936;6.764;2024-01-10T07:00:13;-2.60;99.90
14182;DHT22;7171;50.936;6.764;2024-01-10T07:02:40;-2.60;99.90
14182;DHT22;7171;50.936;6.764;2024-01-10T07:05:08;-2.60;99.90
14182;DHT22;7171;50.936;6.764;2024-01-10T07:07:35;-2.60;99.90
14182;DHT22;7171;50.936;6.764;2024-01-10T07:10:02;-2.60;99.90
14182;DHT22;7171;50.936;6.764;2024-01-10T07:12:30;-2.60;99.90
14182;DHT22;7171;50.936;6.764;2024-01-10T07:14:57;-2.60;99.90
14182;DHT22;7171;50.936;6.764;2024-01-10T07:17:25;-2.60;99.90
14182;DHT22;7171;50.936;6.764;2024-01-10T07:19:52;-2.60;99.90
14182;DHT22;7171;50.936;6.764;2024-01-10T07:22:18;-2.60;99.90
14182;DHT22;7171;50.936;6.764;2024-01-10T07:24:45;-2.60;99.90
14182;DHT22;7171;50.936;6.764;2024-01-10T07:27:12;-2.60;99.90
14182;DHT22;7171;50.936;6.764;2024-01-10T07:29:40;-2.60;99.90
14182;DHT22;7171;50.936;6.764;2024-01-10T07:32:07;-2.60;99.90
14182;DHT22;7171;50.936;6.764;2024-01-10T07:34:37;-2.60;99.90
14182;DHT22;7171;50.936;6.764;2024-01-10T07:37:04;-2.70;99.90
14182;DHT22;7171;50.936;6.764;2024-01-10T07:39:31;-2.70;99.90
14182;DHT22;7171;50.936;6.764;2024-01-10T07:41:58;-2.70;99.90
14182;DHT22;7171;50.936;6.764;2024-01-10T07:44:27;-2.60;99.90
14182;DHT22;7171;50.936;6.764;2024-01-10T07:46:54;-2.60;99.90
14182;DHT22;7171;50.936;6.764;2024-01-10T07:49:21;-2.60;99.90
14182;DHT22;7171;50.936;6.764;2024-01-10T07:51:50;-2.70;99.90
14182;DHT22;7171;50.936;6.764;2024-01-10T07:54:17;-2.60;99.90
14182;DHT22;7171;50.936;6.764;2024-01-10T07:56:43;-2.60;99.90
14182;DHT22;7171;50.936;6.764;2024-01-10T07:59:10;-2.60;99.90
14182;DHT22;7171;50.936;6.764;2024-01-10T08:01:40;-2.60;99.90
14182;DHT22;7171;50.936;6.764;2024-01-10T08:04:06;-2.60;99.90
14182;DHT22;7171;50.936;6.764;2024-01-10T08:06:33;-2.60;99.90
14182;DHT22;7171;50.936;6.764;2024-01-10T08:09:01;-2.60;99.90
14182;DHT22;7171;50.936;6.764;2024-01-10T08:11:30;-2.60;99.90
14182;DHT22;7171;50.936;6.764;2024-01-10T08:13:56;-2.60;99.90
14182;DHT22;7171;50.936;6.764;2024-01-10T08:16:23;-2.60;99.90
14182;DHT22;7171;50.936;6.764;2024-01-10T08:18:50;-2.60;99.90
14182;DHT22;7171;50.936;6.764;2024-01-10T08:21:16;-2.60;99.90
14182;DHT22;7171;50.936;6.764;2024-01-10T08:23:44;-2.60;99.90
14182;DHT22;7171;50.936;6.764;2024-01-10T08:26:12;-2.50;99.90
14182;DHT22;7171;50.936;6.764;2024-01-10T08:28:39;-2.50;99.90
14182;DHT22;7171;50.936;6.764;2024-01-10T08:31:06;-2.50;99.90
14182;DHT22;7171;50.936;6.764;2024-01-10T08:33:33;-2.50;99.90
14182;DHT22;7171;50.936;6.764;2024-01-10T08:36:00;-2.50;99.90
14182;DHT22;7171;50.936;6.764;2024-01-10T08:38:27;-2.50;99.90
14182;DHT22;7171;50.936;6.764;2024-01-10T08:40:54;-2.50;99.90
14182;DHT22;7171;50.936;6.764;2024-01-10T08:43:22;-2.50;99.90
14182;DHT22;7171;50.936;6.764;2024-01-10T08:45:49;-2.50;99.90
14182;DHT22;7171;50.936;6.764;2024-01-10T08:48:15;-2.50;99.90
14182;DHT22;7171;50.936;6.764;2024-01-10T08:50:43;-2.40;99.90
14182;DHT22;7171;50.936;6.764;2024-01-10T08:53:10;-2.40;99.90
14182;DHT22;7171;50.936;6.764;2024-01-10T08:55:37;-2.40;99.90
14182;DHT22;7171;50.936;6.764;2024-01-10T08:58:04;-2.40;99.90
14182;DHT22;7171;50.936;6.764;2024-01-10T09:00:32;-2.40;99.90
14182;DHT22;7171;50.936;6.764;2024-01-10T09:02:59;-2.40;99.90
14182;DHT22;7171;50.936;6.764;2024-01-10T09:05:26;-2.30;99.90
14182;DHT22;7171;50.936;6.764;2024-01-10T09:07:53;-2.30;99.90
14182;DHT22;7171;50.936;6.764;2024-01-10T09:10:20;-2.30;99.90
14182;DHT22;7171;50.936;6.764;2024-01-10T09:12:47;-2.20;99.90
14182;DHT22;7171;50.936;6.764;2024-01-10T09:15:14;-2.20;99.90
14182;DHT22;7171;50.936;6.764;2024-01-10T09:17:43;-2.20;99.90
14182;DHT22;7171;50.936;6.764;2024-01-10T09:20:10;-2.20;99.90
14182;DHT22;7171;50.936;6.764;2024-01-10T09:22:37;-2.10;99.90
14182;DHT22;7171;50.936;6.764;2024-01-10T09:25:05;-2.10;99.90
14182;DHT22;7171;50.936;6.764;2024-01-10T09:27:32;-2.10;99.90
14182;DHT22;7171;50.936;6.764;2024-01-10T09:29:59;-2.10;99.90
14182;DHT22;7171;50.936;6.764;2024-01-10T09:32:27;-2.00;99.90
14182;DHT22;7171;50.936;6.764;2024-01-10T09:34:55;-2.00;99.90
14182;DHT22;7171;50.936;6.764;2024-01-10T09:37:22;-1.90;99.90
14182;DHT22;7171;50.936;6.764;2024-01-10T09:39:49;-1.90;99.90
14182;DHT22;7171;50.936;6.764;2024-01-10T09:42:15;-1.90;99.90
14182;DHT22;7171;50.936;6.764;2024-01-10T09:44:42;-1.90;99.90
14182;DHT22;7171;50.936;6.764;2024-01-10T09:47:09;-1.80;99.90
14182;DHT22;7171;50.936;6.764;2024-01-10T09:49:36;-1.80;99.90
14182;DHT22;7171;50.936;6.764;2024-01-10T09:52:08;-1.70;99.90
14182;DHT22;7171;50.936;6.764;2024-01-10T09:54:38;-1.20;99.90
14182;DHT22;7171;50.936;6.764;2024-01-10T09:57:06;-1.70;99.90
14182;DHT22;7171;50.936;6.764;2024-01-10T09:59:33;-1.60;99.90
14182;DHT22;7171;50.936;6.764;2024-01-10T10:02:01;-1.60;99.90
14182;DHT22;7171;50.936;6.764;2024-01-10T10:04:30;-1.50;99.90
14182;DHT22;7171;50.936;6.764;2024-01-10T10:07:00;-1.50;99.90
14182;DHT22;7171;50.936;6.764;2024-01-10T10:09:29;-1.40;99.90
14182;DHT22;7171;50.936;6.764;2024-01-10T10:11:56;-1.40;99.90
14182;DHT22;7171;50.936;6.764;2024-01-10T10:14:26;-1.40;99.90
14182;DHT22;7171;50.936;6.764;2024-01-10T10:16:54;-1.40;99.90
14182;DHT22;7171;50.936;6.764;2024-01-10T10:19:22;-1.30;99.90
14182;DHT22;7171;50.936;6.764;2024-01-10T10:21:49;-1.30;99.90
14182;DHT22;7171;50.936;6.764;2024-01-10T10:24:17;-1.30;99.90
14182;DHT22;7171;50.936;6.764;2024-01-10T10:26:45;-1.30;99.90
14182;DHT22;7171;50.936;6.764;2024-01-10T10:29:12;-1.30;99.90
14182;DHT22;7171;50.936;6.764;2024-01-10T10:31:38;-1.30;99.90
14182;DHT22;7171;50.936;6.764;2024-01-10T10:34:05;-1.20;99.90
14182;DHT22;7171;50.936;6.764;2024-01-10T10:36:32;-1.20;99.90
14182;DHT22;7171;50.936;6.764;2024-01-10T10:39:00;-1.20;99.90
14182;DHT22;7171;50.936;6.764;2024-01-10T10:41:29;-1.20;99.90
14182;DHT22;7171;50.936;6.764;2024-01-10T10:43:58;-1.20;99.90
14182;DHT22;7171;50.936;6.764;2024-01-10T10:46:27;-1.20;99.90
14182;DHT22;7171;50.936;6.764;2024-01-10T10:48:54;-1.10;99.90
14182;DHT22;7171;50.936;6.764;2024-01-10T10:51:27;-1.10;99.90
14182;DHT22;7171;50.936;6.764;2024-01-10T10:53:55;-1.10;99.90
14182;DHT22;7171;50.936;6.764;2024-01-10T10:56:23;-1.00;99.90
14182;DHT22;7171;50.936;6.764;2024-01-10T10:58:50;-1.00;99.90
14182;DHT22;7171;50.936;6.764;2024-01-10T11:01:19;-1.00;99.90
14182;DHT22;7171;50.936;6.764;2024-01-10T11:03:48;-1.00;99.90
14182;DHT22;7171;50.936;6.764;2024-01-10T11:06:15;-1.00;99.90
14182;DHT22;7171;50.936;6.764;2024-01-10T11:08:46;-0.90;99.90
14182;DHT22;7171;50.936;6.764;2024-01-10T11:11:22;-0.90;99.90
14182;DHT22;7171;50.936;6.764;2024-01-10T11:14:06;-0.90;99.90
14182;DHT22;7171;50.936;6.764;2024-01-10T11:20:05;-0.80;99.90
14182;DHT22;7171;50.936;6.764;2024-01-10T11:22:48;-0.80;99.90
14182;DHT22;7171;50.936;6.764;2024-01-10T11:25:19;-0.80;99.90
14182;DHT22;7171;50.936;6.764;2024-01-10T11:27:46;-0.80;99.90
14182;DHT22;7171;50.936;6.764;2024-01-10T11:30:30;-0.70;99.90
14182;DHT22;7171;50.936;6.764;2024-01-10T11:33:02;-0.70;99.90
14182;DHT22;7171;50.936;6.764;2024-01-10T11:35:29;-0.60;99.90
14182;DHT22;7171;50.936;6.764;2024-01-10T11:37:59;-0.60;99.90
14182;DHT22;7171;50.936;6.764;2024-01-10T11:40:46;-0.50;99.90
14182;DHT22;7171;50.936;6.764;2024-01-10T11:43:13;-0.40;99.90
14182;DHT22;7171;50.936;6.764;2024-01-10T11:45:50;-0.40;99.90
14182;DHT22;7171;50.936;6.764;2024-01-10T11:48:25;-0.40;99.90
14182;DHT22;7171;50.936;6.764;2024-01-10T11:50:53;-0.30;99.90
14182;DHT22;7171;50.936;6.764;2024-01-10T11:53:38;-0.20;99.90
14182;DHT22;7171;50.936;6.764;2024-01-10T11:56:09;-0.20;99.90
14182;DHT22;7171;50.936;6.764;2024-01-10T11:58:52;-0.10;99.90
14182;DHT22;7171;50.936;6.764;2024-01-10T12:01:19;-0.10;99.90
14182;DHT22;7171;50.936;6.764;2024-01-10T12:03:51;-0.10;99.90
14182;DHT22;7171;50.936;6.764;2024-01-10T12:06:19;0.00;99.90
14182;DHT22;7171;50.936;6.764;2024-01-10T12:08:47;0.00;99.90
14182;DHT22;7171;50.936;6.764;2024-01-10T12:11:14;0.00;99.90
14182;DHT22;7171;50.936;6.764;2024-01-10T12:13:42;0.10;99.90
14182;DHT22;7171;50.936;6.764;2024-01-10T12:16:09;0.10;99.90
14182;DHT22;7171;50.936;6.764;2024-01-10T12:18:36;0.20;99.90
14182;DHT22;7171;50.936;6.764;2024-01-10T12:21:05;0.20;99.90
14182;DHT22;7171;50.936;6.764;2024-01-10T12:23:34;0.30;99.90
14182;DHT22;7171;50.936;6.764;2024-01-10T12:26:02;0.30;99.90
14182;DHT22;7171;50.936;6.764;2024-01-10T12:28:30;0.40;99.90
14182;DHT22;7171;50.936;6.764;2024-01-10T12:30:57;0.40;99.90
14182;DHT22;7171;50.936;6.764;2024-01-10T12:33:24;0.50;99.90
14182;DHT22;7171;50.936;6.764;2024-01-10T12:36:06;0.50;99.90
14182;DHT22;7171;50.936;6.764;2024-01-10T12:38:33;0.60;99.90
14182;DHT22;7171;50.936;6.764;2024-01-10T12:41:00;0.60;99.90
14182;DHT22;7171;50.936;6.764;2024-01-10T12:43:27;0.70;99.90
14182;DHT22;7171;50.936;6.764;2024-01-10T12:46:08;0.70;99.90
14182;DHT22;7171;50.936;6.764;2024-01-10T12:48:36;0.80;99.90
14182;DHT22;7171;50.936;6.764;2024-01-10T12:51:05;0.80;99.90
14182;DHT22;7171;50.936;6.764;2024-01-10T12:53:34;0.80;99.90
14182;DHT22;7171;50.936;6.764;2024-01-10T12:56:01;0.90;99.90
14182;DHT22;7171;50.936;6.764;2024-01-10T12:58:28;0.90;99.90
14182;DHT22;7171;50.936;6.764;2024-01-10T13:00:55;0.90;99.90
14182;DHT22;7171;50.936;6.764;2024-01-10T13:03:21;1.00;99.90
14182;DHT22;7171;50.936;6.764;2024-01-10T13:05:48;1.00;99.90
14182;DHT22;7171;50.936;6.764;2024-01-10T13:08:17;1.00;99.90
14182;DHT22;7171;50.936;6.764;2024-01-10T13:10:44;1.00;99.90
14182;DHT22;7171;50.936;6.764;2024-01-10T13:13:11;1.00;99.90
14182;DHT22;7171;50.936;6.764;2024-01-10T13:15:38;1.00;99.90
14182;DHT22;7171;50.936;6.764;2024-01-10T13:18:05;1.10;99.90
14182;DHT22;7171;50.936;6.764;2024-01-10T13:20:32;1.10;99.90
14182;DHT22;7171;50.936;6.764;2024-01-10T13:22:59;1.10;99.90
14182;DHT22;7171;50.936;6.764;2024-01-10T13:25:27;1.10;99.90
14182;DHT22;7171;50.936;6.764;2024-01-10T13:27:53;1.10;99.90
14182;DHT22;7171;50.936;6.764;2024-01-10T13:30:20;1.10;99.90
14182;DHT22;7171;50.936;6.764;2024-01-10T13:32:47;1.20;99.90
14182;DHT22;7171;50.936;6.764;2024-01-10T13:35:14;1.20;99.90
14182;DHT22;7171;50.936;6.764;2024-01-10T13:37:41;1.20;99.90
14182;DHT22;7171;50.936;6.764;2024-01-10T13:40:09;1.30;99.90
14182;DHT22;7171;50.936;6.764;2024-01-10T13:42:39;1.30;99.90
14182;DHT22;7171;50.936;6.764;2024-01-10T13:45:06;1.30;99.90
14182;DHT22;7171;50.936;6.764;2024-01-10T13:47:36;1.40;99.90
14182;DHT22;7171;50.936;6.764;2024-01-10T13:50:04;1.40;99.90
14182;DHT22;7171;50.936;6.764;2024-01-10T13:52:31;1.40;99.90
14182;DHT22;7171;50.936;6.764;2024-01-10T13:54:59;1.50;99.90
14182;DHT22;7171;50.936;6.764;2024-01-10T13:57:25;1.50;99.90
14182;DHT22;7171;50.936;6.764;2024-01-10T13:59:53;1.50;99.90
14182;DHT22;7171;50.936;6.764;2024-01-10T14:02:21;1.60;99.90
14182;DHT22;7171;50.936;6.764;2024-01-10T14:04:48;1.60;99.90
14182;DHT22;7171;50.936;6.764;2024-01-10T14:07:14;1.60;99.90
14182;DHT22;7171;50.936;6.764;2024-01-10T14:09:41;1.60;99.90
14182;DHT22;7171;50.936;6.764;2024-01-10T14:12:08;1.60;99.90
14182;DHT22;7171;50.936;6.764;2024-01-10T14:14:35;1.60;99.90
14182;DHT22;7171;50.936;6.764;2024-01-10T14:17:03;1.70;99.90
14182;DHT22;7171;50.936;6.764;2024-01-10T14:19:30;1.70;99.90
14182;DHT22;7171;50.936;6.764;2024-01-10T14:21:57;1.70;99.90
14182;DHT22;7171;50.936;6.764;2024-01-10T14:24:24;1.70;99.90
14182;DHT22;7171;50.936;6.764;2024-01-10T14:26:51;1.70;99.90
14182;DHT22;7171;50.936;6.764;2024-01-10T14:29:18;1.70;99.90
14182;DHT22;7171;50.936;6.764;2024-01-10T14:31:45;1.70;99.90
14182;DHT22;7171;50.936;6.764;2024-01-10T14:34:13;1.70;99.90
14182;DHT22;7171;50.936;6.764;2024-01-10T14:36:40;1.70;99.90
14182;DHT22;7171;50.936;6.764;2024-01-10T14:39:07;1.70;99.90
14182;DHT22;7171;50.936;6.764;2024-01-10T14:41:38;1.70;99.90
14182;DHT22;7171;50.936;6.764;2024-01-10T14:44:04;1.70;99.90
14182;DHT22;7171;50.936;6.764;2024-01-10T14:46:31;1.70;99.90
14182;DHT22;7171;50.936;6.764;2024-01-10T14:48:58;1.80;99.90
14182;DHT22;7171;50.936;6.764;2024-01-10T14:51:26;1.80;99.90
14182;DHT22;7171;50.936;6.764;2024-01-10T14:53:52;1.80;99.90
14182;DHT22;7171;50.936;6.764;2024-01-10T14:56:19;1.80;99.90
14182;DHT22;7171;50.936;6.764;2024-01-10T14:58:46;1.80;99.90
14182;DHT22;7171;50.936;6.764;2024-01-10T15:01:13;1.80;99.90
14182;DHT22;7171;50.936;6.764;2024-01-10T15:03:40;1.80;99.90
14182;DHT22;7171;50.936;6.764;2024-01-10T15:06:08;1.80;99.90
14182;DHT22;7171;50.936;6.764;2024-01-10T15:08:36;1.80;99.90
14182;DHT22;7171;50.936;6.764;2024-01-10T15:11:03;1.80;99.90
14182;DHT22;7171;50.936;6.764;2024-01-10T15:13:30;1.80;99.90
14182;DHT22;7171;50.936;6.764;2024-01-10T15:15:56;1.80;99.90
14182;DHT22;7171;50.936;6.764;2024-01-10T15:18:23;1.90;99.90
14182;DHT22;7171;50.936;6.764;2024-01-10T15:20:50;1.90;99.90
14182;DHT22;7171;50.936;6.764;2024-01-10T15:23:18;1.90;99.90
14182;DHT22;7171;50.936;6.764;2024-01-10T15:25:47;1.90;99.90
14182;DHT22;7171;50.936;6.764;2024-01-10T15:28:13;1.90;99.90
14182;DHT22;7171;50.936;6.764;2024-01-10T15:30:40;2.00;99.90
14182;DHT22;7171;50.936;6.764;2024-01-10T15:33:07;2.00;99.90
14182;DHT22;7171;50.936;6.764;2024-01-10T15:35:36;2.00;99.90
14182;DHT22;7171;50.936;6.764;2024-01-10T15:38:03;2.00;99.90
14182;DHT22;7171;50.936;6.764;2024-01-10T15:40:30;2.00;99.90
14182;DHT22;7171;50.936;6.764;2024-01-10T15:42:58;2.00;99.90
14182;DHT22;7171;50.936;6.764;2024-01-10T15:45:24;2.00;99.90
14182;DHT22;7171;50.936;6.764;2024-01-10T15:47:51;2.00;99.90
14182;DHT22;7171;50.936;6.764;2024-01-10T15:50:18;1.90;99.90
14182;DHT22;7171;50.936;6.764;2024-01-10T15:52:45;2.00;99.90
14182;DHT22;7171;50.936;6.764;2024-01-10T15:55:14;1.90;99.90